createdAt,value
2022-10-11T00:01:34.579Z,6.50
2022-10-11T00:04:03.830Z,5.93
2022-10-11T00:06:32.797Z,6.55
2022-10-11T00:09:03.122Z,6.38
2022-10-11T00:11:32.527Z,6.22
2022-10-11T00:14:01.461Z,6.35
2022-10-11T00:16:30.418Z,6.60
2022-10-11T00:18:59.573Z,7.10
2022-10-11T00:21:28.853Z,6.65
2022-10-11T00:23:58.051Z,7.40
2022-10-11T00:26:28.684Z,7.47
2022-10-11T00:28:57.627Z,6.68
2022-10-11T00:31:26.675Z,7.20
2022-10-11T00:33:56.319Z,6.67
2022-10-11T00:36:25.288Z,7.28
2022-10-11T00:38:54.301Z,6.22
2022-10-11T00:41:24.151Z,7.00
2022-10-11T00:44:10.679Z,6.53
2022-10-11T00:46:41.540Z,7.47
2022-10-11T00:49:19.162Z,7.13
2022-10-11T00:51:53.469Z,7.10
2022-10-11T00:54:26.513Z,6.88
2022-10-11T00:57:01.490Z,7.70
2022-10-11T00:59:36.495Z,6.97
2022-10-11T01:02:07.015Z,7.28
2022-10-11T01:04:36.167Z,7.50
2022-10-11T01:07:05.637Z,7.60
2022-10-11T01:09:36.065Z,7.40
2022-10-11T01:15:08.411Z,8.00
2022-10-11T01:17:45.824Z,8.05
2022-10-11T01:20:36.325Z,7.43
2022-10-11T01:25:59.912Z,7.05
2022-10-11T01:28:43.548Z,8.23
2022-10-11T01:31:24.061Z,8.55
2022-10-11T01:36:33.630Z,7.72
2022-10-11T01:39:07.178Z,9.20
2022-10-11T01:41:40.435Z,7.53
2022-10-11T01:44:12.538Z,9.18
2022-10-11T01:46:43.714Z,8.70
2022-10-11T01:49:13.075Z,8.82
2022-10-11T01:51:47.541Z,8.82
2022-10-11T01:55:03.903Z,8.40
2022-10-11T01:57:59.816Z,8.73
2022-10-11T02:00:35.239Z,8.45
2022-10-11T02:03:20.372Z,9.10
2022-10-11T02:05:57.758Z,9.20
2022-10-11T02:08:34.640Z,9.00
2022-10-11T02:11:10.901Z,8.50
2022-10-11T02:13:45.330Z,9.38
2022-10-11T02:16:20.039Z,9.45
2022-10-11T02:18:55.649Z,9.00
2022-10-11T02:21:25.877Z,9.25
2022-10-11T02:23:57.648Z,8.68
2022-10-11T02:26:29.694Z,10.10
2022-10-11T02:29:02.263Z,9.90
2022-10-11T02:31:35.596Z,8.70
2022-10-11T02:34:13.239Z,10.40
2022-10-11T02:36:51.596Z,9.90
2022-10-11T02:39:27.357Z,9.15
2022-10-11T02:42:03.467Z,9.60
2022-10-11T02:44:38.236Z,8.50
2022-10-11T02:47:08.844Z,8.68
2022-10-11T02:49:39.640Z,10.02
2022-10-11T02:52:08.986Z,9.07
2022-10-11T02:54:37.958Z,8.27
2022-10-11T02:57:07.100Z,9.95
2022-10-11T02:59:36.347Z,9.10
2022-10-11T03:02:05.368Z,8.52
2022-10-11T03:04:34.568Z,8.82
2022-10-11T03:07:04.940Z,9.75
2022-10-11T03:09:33.917Z,9.02
2022-10-11T03:12:03.417Z,9.43
2022-10-11T03:14:32.362Z,9.20
2022-10-11T03:17:23.709Z,8.95
2022-10-11T03:19:50.565Z,9.25
2022-10-11T03:22:20.902Z,8.75
2022-10-11T03:24:49.850Z,8.48
2022-10-11T03:27:19.136Z,8.80
2022-10-11T03:29:48.071Z,8.13
2022-10-11T03:32:17.292Z,7.97
2022-10-11T03:34:46.445Z,8.10
2022-10-11T03:37:15.418Z,7.25
2022-10-11T03:39:46.017Z,7.20
2022-10-11T03:42:15.789Z,7.65
2022-10-11T03:44:44.795Z,6.30
2022-10-11T03:47:13.906Z,6.47
2022-10-11T03:49:43.877Z,6.90
2022-10-11T03:52:13.020Z,6.43
2022-10-11T03:54:41.976Z,6.35
2022-10-11T03:57:12.531Z,5.88
2022-10-11T03:59:41.611Z,5.68
2022-10-11T04:02:11.059Z,5.53
2022-10-11T04:04:40.238Z,4.88
2022-10-11T04:07:09.236Z,5.15
2022-10-11T04:09:38.952Z,4.20
2022-10-11T04:12:08.421Z,3.97
2022-10-11T04:14:38.744Z,4.03
2022-10-11T04:19:37.207Z,3.60
2022-10-11T04:22:06.791Z,3.22
2022-10-11T04:24:35.872Z,2.90
2022-10-11T04:27:05.162Z,2.72
2022-10-11T04:29:34.189Z,2.70
2022-10-11T04:32:04.518Z,3.08
2022-10-11T04:34:33.693Z,2.40
2022-10-11T04:37:02.641Z,2.78
2022-10-11T04:39:31.614Z,2.10
2022-10-11T04:42:00.764Z,2.10
2022-10-11T04:44:29.755Z,1.60
2022-10-11T04:46:59.139Z,1.30
2022-10-11T04:49:29.709Z,1.50
2022-10-11T04:51:58.698Z,1.40
2022-10-11T04:54:28.043Z,1.50
2022-10-11T04:56:57.204Z,1.40
2022-10-11T04:59:26.305Z,1.00
2022-10-11T05:01:55.333Z,1.35
2022-10-11T05:04:24.618Z,1.43
2022-10-11T05:06:55.088Z,1.35
2022-10-11T05:09:24.142Z,1.15
2022-10-11T05:11:53.344Z,1.40
2022-10-11T05:14:22.301Z,1.63
2022-10-11T05:16:51.242Z,1.08
2022-10-11T05:19:20.395Z,0.95
2022-10-11T05:21:49.347Z,1.23
2022-10-11T05:24:19.729Z,1.08
2022-10-11T05:26:48.910Z,1.13
2022-10-11T05:29:17.893Z,1.13
2022-10-11T05:31:46.880Z,1.27
2022-10-11T05:34:16.032Z,1.05
2022-10-11T05:36:44.988Z,1.10
2022-10-11T05:39:14.159Z,1.40
2022-10-11T05:41:44.495Z,1.40
2022-10-11T05:44:13.439Z,1.30
2022-10-11T05:46:42.658Z,1.40
2022-10-11T05:49:11.693Z,1.20
2022-10-11T05:51:41.168Z,1.50
2022-10-11T05:54:10.322Z,1.30
2022-10-11T05:56:39.285Z,1.35
2022-10-11T05:59:09.660Z,1.40
2022-10-11T06:01:38.943Z,1.23
2022-10-11T06:04:08.414Z,1.05
2022-10-11T06:06:37.374Z,1.33
2022-10-11T06:09:06.575Z,1.40
2022-10-11T06:11:35.511Z,1.30
2022-10-11T06:14:04.476Z,1.45
2022-10-11T06:16:35.030Z,1.35
2022-10-11T06:19:04.335Z,1.73
2022-10-11T06:21:33.463Z,1.63
2022-10-11T06:24:02.697Z,1.77
2022-10-11T06:26:31.974Z,1.30
2022-10-11T06:29:01.003Z,1.13
2022-10-11T06:31:30.335Z,1.90
2022-10-11T06:34:01.566Z,1.50
2022-10-11T06:36:30.957Z,1.67
2022-10-11T06:39:01.529Z,1.13
2022-10-11T06:41:31.790Z,1.63
2022-10-11T06:44:01.076Z,1.40
2022-10-11T06:46:32.290Z,1.42
2022-10-11T06:49:02.669Z,1.38
2022-10-11T06:51:32.558Z,1.50
2022-10-11T06:54:02.017Z,1.75
2022-10-11T06:56:32.071Z,1.40
2022-10-11T07:01:30.136Z,1.40
2022-10-11T07:04:03.071Z,2.03
2022-10-11T07:06:32.721Z,1.50
2022-10-11T07:09:02.322Z,1.57
2022-10-11T07:11:31.732Z,1.50
2022-10-11T07:14:04.310Z,1.70
2022-10-11T07:16:33.395Z,1.73
2022-10-11T07:19:05.381Z,1.63
2022-10-11T07:21:35.751Z,1.70
2022-10-11T07:24:05.406Z,1.52
2022-10-11T07:26:38.543Z,1.23
2022-10-11T07:29:09.589Z,1.52
2022-10-11T07:31:39.636Z,1.80
2022-10-11T07:34:10.503Z,1.60
2022-10-11T07:36:39.821Z,1.63
2022-10-11T07:39:09.881Z,1.38
2022-10-11T07:41:44.665Z,1.73
2022-10-11T07:44:15.108Z,1.60
2022-10-11T07:46:44.176Z,1.50
2022-10-11T07:49:14.556Z,1.50
2022-10-11T07:51:43.711Z,1.52
2022-10-11T07:54:12.652Z,1.83
2022-10-11T07:56:41.609Z,1.60
2022-10-11T07:59:12.570Z,1.90
2022-10-11T08:01:41.601Z,1.92
2022-10-11T08:04:11.163Z,1.75
2022-10-11T08:06:42.404Z,1.92
2022-10-11T08:09:12.755Z,2.33
2022-10-11T08:11:42.054Z,1.50
2022-10-11T08:14:11.457Z,1.30
2022-10-11T08:16:41.051Z,1.70
2022-10-11T08:19:11.068Z,1.85
2022-10-11T08:21:41.728Z,1.77
2022-10-11T08:24:13.730Z,1.60
2022-10-11T08:26:43.184Z,1.52
2022-10-11T08:29:12.304Z,1.87
2022-10-11T08:31:41.285Z,1.30
2022-10-11T08:34:10.424Z,1.58
2022-10-11T08:36:40.895Z,1.75
2022-10-11T08:39:10.053Z,1.80
2022-10-11T08:41:43.144Z,1.67
2022-10-11T08:45:05.599Z,1.38
2022-10-11T08:47:34.069Z,2.03
2022-10-11T08:50:04.980Z,1.55
2022-10-11T08:52:46.314Z,1.80
2022-10-11T08:55:22.354Z,1.40
2022-10-11T08:57:55.905Z,1.95
2022-10-11T09:00:29.644Z,1.50
2022-10-11T09:03:09.078Z,1.92
2022-10-11T09:05:50.383Z,1.38
2022-10-11T09:08:28.077Z,1.73
2022-10-11T09:11:07.043Z,1.50
2022-10-11T09:13:55.271Z,2.05
2022-10-11T09:16:37.422Z,1.45
2022-10-11T09:19:39.482Z,1.50
2022-10-11T09:22:17.229Z,1.88
2022-10-11T09:25:06.376Z,1.90
2022-10-11T09:28:03.928Z,1.58
2022-10-11T09:31:10.022Z,1.63
2022-10-11T09:33:43.165Z,2.13
2022-10-11T09:36:20.085Z,1.65
2022-10-11T09:38:55.595Z,1.55
2022-10-11T09:41:37.533Z,1.50
2022-10-11T09:44:08.988Z,1.67
2022-10-11T09:46:42.157Z,1.50
2022-10-11T09:49:15.393Z,1.65
2022-10-11T09:51:49.274Z,1.50
2022-10-11T09:54:20.728Z,1.83
2022-10-11T09:56:51.363Z,1.73
2022-10-11T09:59:28.500Z,1.40
2022-10-11T10:02:22.669Z,1.52
2022-10-11T10:05:20.177Z,1.83
2022-10-11T10:08:22.390Z,1.70
2022-10-11T10:11:00.793Z,1.52
2022-10-11T10:13:44.862Z,1.40
2022-10-11T10:16:26.163Z,1.90
2022-10-11T10:18:58.213Z,1.75
2022-10-11T10:21:33.207Z,1.92
2022-10-11T10:24:06.210Z,2.08
2022-10-11T10:26:35.763Z,1.42
2022-10-11T10:29:20.151Z,1.88
2022-10-11T10:34:56.573Z,1.52
2022-10-11T10:37:30.570Z,1.50
2022-10-11T10:40:13.407Z,1.60
2022-10-11T10:42:42.533Z,1.70
2022-10-11T10:45:21.873Z,1.53
2022-10-11T10:48:14.189Z,1.53
2022-10-11T10:50:51.195Z,1.52
2022-10-11T10:53:28.773Z,2.03
2022-10-11T10:56:07.426Z,1.80
2022-10-11T10:58:57.525Z,2.22
2022-10-11T11:01:32.056Z,1.85
2022-10-11T11:04:08.059Z,1.65
2022-10-11T11:06:46.550Z,2.22
2022-10-11T11:09:34.144Z,2.17
2022-10-11T11:12:15.786Z,2.10
2022-10-11T11:14:55.028Z,2.00
2022-10-11T11:17:37.000Z,1.60
2022-10-11T11:20:22.629Z,1.48
2022-10-11T11:22:58.815Z,1.40
2022-10-11T11:25:40.329Z,1.65
2022-10-11T11:28:36.294Z,2.13
2022-10-11T11:31:12.659Z,1.70
2022-10-11T11:33:54.624Z,2.35
2022-10-11T11:36:32.916Z,1.95
2022-10-11T11:39:05.504Z,1.73
2022-10-11T11:41:40.094Z,1.55
2022-10-11T11:44:17.161Z,2.00
2022-10-11T11:46:52.048Z,1.83
2022-10-11T11:49:29.894Z,2.28
2022-10-11T11:52:00.144Z,2.28
2022-10-11T11:54:47.626Z,2.03
2022-10-11T11:57:27.224Z,1.77
2022-10-11T12:00:02.119Z,2.30
2022-10-11T12:02:47.050Z,1.90
2022-10-11T12:05:21.117Z,1.27
2022-10-11T12:08:02.031Z,2.10
2022-10-11T12:10:36.780Z,1.50
2022-10-11T12:13:22.166Z,1.65
2022-10-11T12:16:10.271Z,1.85
2022-10-11T12:18:51.785Z,1.90
2022-10-11T12:21:31.147Z,1.67
2022-10-11T12:24:01.086Z,1.50
2022-10-11T12:29:48.032Z,1.60
2022-10-11T12:33:06.279Z,1.60
2022-10-11T12:36:33.540Z,1.77
2022-10-11T12:40:58.891Z,1.65
2022-10-11T12:43:37.331Z,1.90
2022-10-11T12:46:39.461Z,1.90
2022-10-11T12:49:42.470Z,1.42
2022-10-11T12:52:33.697Z,1.48
2022-10-11T12:55:26.565Z,1.20
2022-10-11T12:58:29.142Z,1.45
2022-10-11T13:01:11.557Z,1.95
2022-10-11T13:03:43.579Z,1.75
2022-10-11T13:06:16.795Z,1.45
2022-10-11T13:08:50.203Z,1.75
2022-10-11T13:11:26.237Z,2.00
2022-10-11T13:14:11.665Z,2.00
2022-10-11T13:16:52.205Z,1.55
2022-10-11T13:19:24.311Z,1.60
2022-10-11T13:21:55.805Z,2.17
2022-10-11T13:24:26.286Z,1.63
2022-10-11T13:27:05.401Z,1.80
2022-10-11T13:29:37.233Z,1.60
2022-10-11T13:32:11.716Z,1.75
2022-10-11T13:34:42.955Z,1.35
2022-10-11T13:37:19.223Z,1.52
2022-10-11T13:39:50.062Z,1.73
2022-10-11T13:42:26.982Z,1.95
2022-10-11T13:44:56.726Z,1.80
2022-10-11T13:47:29.033Z,1.90
2022-10-11T13:50:10.889Z,1.52
2022-10-11T13:53:00.538Z,1.50
2022-10-11T13:55:35.348Z,1.90
2022-10-11T13:58:18.723Z,2.17
2022-10-11T14:00:56.118Z,2.38
2022-10-11T14:03:29.814Z,2.28
2022-10-11T14:06:01.382Z,1.83
2022-10-11T14:08:35.531Z,1.73
2022-10-11T14:11:06.514Z,1.58
2022-10-11T14:13:39.667Z,1.77
2022-10-11T14:16:10.565Z,1.63
2022-10-11T14:18:48.368Z,2.08
2022-10-11T14:21:48.509Z,1.75
2022-10-11T14:24:18.293Z,1.63
2022-10-11T14:26:48.933Z,2.10
2022-10-11T14:29:24.762Z,1.45
2022-10-11T14:31:56.423Z,1.45
2022-10-11T14:34:27.213Z,1.92
2022-10-11T14:36:57.759Z,2.30
2022-10-11T14:39:28.659Z,1.52
2022-10-11T14:41:57.729Z,1.73
2022-10-11T14:44:26.877Z,1.80
2022-10-11T14:46:56.534Z,2.22
2022-10-11T14:49:27.627Z,1.90
2022-10-11T14:52:00.430Z,1.65
2022-10-11T14:54:30.953Z,2.47
2022-10-11T14:57:02.245Z,2.08
2022-10-11T14:59:36.352Z,1.83
2022-10-11T15:02:07.332Z,2.35
2022-10-11T15:04:36.396Z,1.55
2022-10-11T15:07:07.002Z,2.57
2022-10-11T15:09:36.014Z,1.92
2022-10-11T15:12:05.584Z,2.20
2022-10-11T15:14:34.541Z,2.85
2022-10-11T15:17:03.547Z,2.35
2022-10-11T15:19:32.729Z,2.60
2022-10-11T15:22:04.329Z,2.70
2022-10-11T15:24:34.880Z,2.88
2022-10-11T15:27:03.852Z,2.88
2022-10-11T15:29:32.802Z,2.60
2022-10-11T15:32:02.007Z,2.28
2022-10-11T15:34:30.980Z,2.40
2022-10-11T15:36:59.975Z,2.35
2022-10-11T15:39:32.523Z,2.53
2022-10-11T15:42:02.879Z,2.72
2022-10-11T15:44:32.116Z,3.10
2022-10-11T15:47:01.117Z,3.40
2022-10-11T15:49:30.342Z,3.43
2022-10-11T15:51:59.286Z,2.63
2022-10-11T15:54:28.235Z,3.58
2022-10-11T15:56:57.408Z,3.30
2022-10-11T15:59:27.796Z,3.00
2022-10-11T16:01:57.141Z,3.05
2022-10-11T16:04:26.168Z,3.70
2022-10-11T16:06:55.143Z,3.70
2022-10-11T16:09:24.493Z,3.65
2022-10-11T16:11:53.464Z,3.58
2022-10-11T16:14:22.631Z,3.53
2022-10-11T16:16:52.974Z,3.88
2022-10-11T16:19:22.175Z,3.30
2022-10-11T16:21:51.123Z,3.60
2022-10-11T16:24:20.296Z,3.50
2022-10-11T16:26:49.253Z,3.05
2022-10-11T16:29:18.421Z,3.10
2022-10-11T16:31:47.378Z,3.42
2022-10-11T16:34:17.927Z,3.30
2022-10-11T16:36:46.874Z,3.60
2022-10-11T16:39:18.253Z,3.60
2022-10-11T16:41:48.021Z,3.47
2022-10-11T16:44:18.771Z,3.15
2022-10-11T16:46:49.428Z,3.78
2022-10-11T16:49:22.557Z,3.65
2022-10-11T16:51:52.866Z,4.10
2022-10-11T16:54:22.337Z,4.05
2022-10-11T16:56:51.600Z,3.83
2022-10-11T16:59:21.496Z,4.28
2022-10-11T17:01:50.793Z,3.38
2022-10-11T17:04:21.365Z,3.95
2022-10-11T17:09:19.562Z,4.72
2022-10-11T17:11:48.589Z,4.40
2022-10-11T17:14:18.744Z,3.95
2022-10-11T17:16:47.720Z,4.20
2022-10-11T17:19:17.557Z,4.65
2022-10-11T17:21:47.921Z,4.50
2022-10-11T17:24:17.096Z,3.95
2022-10-11T17:26:46.067Z,3.92
2022-10-11T17:29:16.973Z,3.88
2022-10-11T17:31:49.181Z,3.92
2022-10-11T17:34:19.099Z,3.70
2022-10-11T17:36:49.489Z,4.23
2022-10-11T17:39:21.407Z,4.03
2022-10-11T17:41:51.122Z,4.90
2022-10-11T17:44:21.761Z,4.95
2022-10-11T17:46:51.249Z,5.22
2022-10-11T17:49:20.436Z,5.88
2022-10-11T17:51:50.779Z,5.03
2022-10-11T17:54:19.975Z,5.45
2022-10-11T17:56:49.542Z,5.15
2022-10-11T17:59:36.908Z,4.93
2022-10-11T18:02:07.597Z,4.70
2022-10-11T18:04:37.511Z,4.60
2022-10-11T18:07:07.906Z,4.18
2022-10-11T18:09:37.160Z,4.28
2022-10-11T18:12:06.662Z,4.00
2022-10-11T18:14:35.872Z,3.85
2022-10-11T18:17:05.380Z,4.07
2022-10-11T18:19:34.490Z,4.05
2022-10-11T18:22:41.063Z,3.67
2022-10-11T18:25:06.237Z,4.50
2022-10-11T18:27:35.850Z,4.50
2022-10-11T18:30:05.428Z,4.90
2022-10-11T18:32:35.036Z,4.72
2022-10-11T18:35:04.557Z,5.07
2022-10-11T18:37:35.195Z,5.57
2022-10-11T18:40:04.831Z,6.32
2022-10-11T18:42:34.121Z,5.78
2022-10-11T18:45:03.237Z,5.47
2022-10-11T18:47:32.440Z,5.60
2022-10-11T18:50:01.736Z,4.65
2022-10-11T18:52:30.852Z,5.53
2022-10-11T18:55:02.850Z,5.78
2022-10-11T18:57:32.488Z,5.63
2022-10-11T19:00:11.656Z,5.43
2022-10-11T19:02:51.052Z,4.03
2022-10-11T19:05:20.339Z,4.28
2022-10-11T19:07:49.376Z,5.00
2022-10-11T19:10:20.243Z,5.20
2022-10-11T19:12:49.273Z,4.75
2022-10-11T19:15:23.169Z,4.30
2022-10-11T19:17:54.321Z,4.90
2022-10-11T19:20:23.578Z,5.05
2022-10-11T19:22:52.602Z,4.55
2022-10-11T19:25:23.643Z,5.03
2022-10-11T19:27:52.909Z,4.88
2022-10-11T19:30:24.661Z,5.18
2022-10-11T19:32:54.399Z,5.45
2022-10-11T19:35:23.384Z,5.43
2022-10-11T19:37:52.593Z,5.50
2022-10-11T19:40:23.070Z,5.03
2022-10-11T19:42:52.105Z,4.93
2022-10-11T19:45:21.406Z,4.88
2022-10-11T19:47:50.367Z,5.00
2022-10-11T19:50:19.460Z,4.32
2022-10-11T19:52:48.646Z,3.80
2022-10-11T19:55:17.719Z,3.58
2022-10-11T19:57:48.297Z,3.73
2022-10-11T20:02:46.673Z,3.07
2022-10-11T20:05:15.768Z,3.65
2022-10-11T20:07:45.111Z,3.55
2022-10-11T20:10:14.102Z,3.22
2022-10-11T20:12:45.901Z,3.03
2022-10-11T20:15:16.611Z,3.10
2022-10-11T20:17:51.798Z,2.80
2022-10-11T20:20:20.873Z,2.85
2022-10-11T20:22:50.041Z,2.90
2022-10-11T20:25:19.051Z,2.50
2022-10-11T20:27:48.276Z,2.78
2022-10-11T20:30:18.852Z,2.97
2022-10-11T20:32:48.010Z,3.03
2022-10-11T20:35:17.197Z,2.35
2022-10-11T20:37:46.370Z,2.25
2022-10-11T20:40:16.380Z,3.03
2022-10-11T20:45:14.278Z,2.78
2022-10-11T20:47:44.599Z,3.40
2022-10-11T20:50:13.763Z,2.80
2022-10-11T20:52:43.281Z,3.47
2022-10-11T20:55:12.623Z,3.35
2022-10-11T20:57:41.858Z,2.80
2022-10-11T21:00:12.214Z,3.10
2022-10-11T21:02:41.183Z,2.63
2022-10-11T21:05:11.975Z,2.72
2022-10-11T21:07:42.443Z,3.25
2022-10-11T21:10:11.755Z,3.47
2022-10-11T21:12:40.720Z,2.75
2022-10-11T21:15:10.640Z,3.35
2022-10-11T21:17:39.731Z,3.15
2022-10-11T21:20:11.343Z,2.92
2022-10-11T21:22:40.431Z,2.70
2022-10-11T21:25:09.711Z,3.17
2022-10-11T21:27:38.835Z,2.88
2022-10-11T21:30:08.858Z,2.72
2022-10-11T21:32:38.413Z,2.85
2022-10-11T21:35:07.643Z,3.28
2022-10-11T21:37:38.076Z,3.58
2022-10-11T21:40:08.004Z,3.10
2022-10-11T21:42:37.204Z,3.58
2022-10-11T21:45:06.935Z,3.90
2022-10-11T21:47:39.005Z,4.03
2022-10-11T21:50:08.953Z,3.08
2022-10-11T21:52:39.496Z,2.85
2022-10-11T21:57:37.533Z,3.38
2022-10-11T22:00:08.854Z,2.83
2022-10-11T22:02:42.454Z,2.92
2022-10-11T22:05:11.387Z,2.90
2022-10-11T22:07:41.696Z,3.50
2022-10-11T22:10:10.922Z,2.90
2022-10-11T22:12:39.948Z,3.65
2022-10-11T22:15:10.028Z,3.42
2022-10-11T22:20:08.807Z,2.40
2022-10-11T22:22:38.081Z,3.40
2022-10-11T22:25:10.094Z,2.25
2022-10-11T22:27:39.050Z,2.22
2022-10-11T22:30:09.618Z,2.33
2022-10-11T22:32:38.600Z,2.35
2022-10-11T22:35:08.211Z,2.25
2022-10-11T22:37:37.671Z,2.08
2022-10-11T22:40:09.544Z,2.15
2022-10-11T22:42:38.716Z,2.20
2022-10-11T22:45:08.351Z,2.45
2022-10-11T22:47:37.690Z,2.40
2022-10-11T22:50:07.762Z,2.40
2022-10-11T22:52:36.836Z,2.25
2022-10-11T22:55:06.278Z,2.42
2022-10-11T22:57:37.106Z,1.90
2022-10-11T23:00:07.771Z,2.35
2022-10-11T23:02:36.937Z,2.40
2022-10-11T23:05:06.169Z,1.80
2022-10-11T23:07:35.382Z,2.08
2022-10-11T23:10:05.269Z,2.20
2022-10-11T23:12:35.914Z,2.33
2022-10-11T23:15:05.469Z,2.33
2022-10-11T23:17:34.691Z,2.33
2022-10-11T23:20:04.942Z,2.53
2022-10-11T23:22:34.146Z,2.60
2022-10-11T23:25:03.119Z,1.67
2022-10-11T23:27:32.091Z,2.13
2022-10-11T23:30:02.813Z,1.77
2022-10-11T23:35:00.705Z,1.90
2022-10-11T23:37:29.692Z,1.88
2022-10-11T23:39:58.668Z,2.03
2022-10-11T23:42:27.806Z,1.50
2022-10-11T23:44:56.727Z,1.73
2022-10-11T23:47:27.029Z,1.80
2022-10-11T23:49:56.171Z,1.77
2022-10-11T23:52:25.375Z,1.95
2022-10-11T23:54:55.690Z,1.95
2022-10-11T23:57:24.846Z,2.53
2022-10-11T23:59:53.803Z,1.80
